Time;durP1;ratioP1;P1;durP2;ratioP2;P2;SDS_P1;SDS_P2;PMS_P1;PMS_P2;Temp;Humidity;BMP_temperature;BMP_pressure;BME280_temperature;BME280_humidity;BME280_pressure;Samples;Min_cycle;Max_cycle;Signal;HPM_P1;HPM_P2
2020/12/10 00:00:35;;;;;;;5.22;1.00;;;;;;;8.01;73.78;98590.94;4901783;29;20481;-76
2020/12/10 00:03:03;;;;;;;6.70;1.42;;;;;;;8.03;73.50;98588.75;4899367;29;20039;-79
2020/12/10 00:05:32;;;;;;;4.18;1.35;;;;;;;8.01;75.23;98598.31;4905919;29;20035;-78
2020/12/10 00:07:58;;;;;;;6.95;1.42;;;;;;;7.93;75.67;98590.78;4898123;29;20040;-79
2020/12/10 00:10:26;;;;;;;2.90;1.20;;;;;;;7.81;75.42;98569.44;4900728;29;20033;-77
2020/12/10 00:12:57;;;;;;;7.47;0.95;;;;;;;7.89;75.48;98581.59;4914926;29;20029;-76
2020/12/10 00:15:22;;;;;;;5.18;0.95;;;;;;;7.85;76.18;98581.38;4897966;29;20025;-77
2020/12/10 00:17:48;;;;;;;2.80;1.65;;;;;;;7.85;76.22;98575.94;4915699;29;20032;-75
2020/12/10 00:20:13;;;;;;;3.88;0.57;;;;;;;7.84;76.25;98575.13;4901588;29;20042;-77
2020/12/10 00:22:39;;;;;;;7.53;0.98;;;;;;;7.93;76.09;98579.91;4907437;29;20028;-77
2020/12/10 00:25:06;;;;;;;4.40;1.02;;;;;;;7.95;76.52;98575.78;4912680;29;20091;-78
2020/12/10 00:27:32;;;;;;;9.45;1.42;;;;;;;7.93;76.16;98571.72;4917611;29;20024;-77
2020/12/10 00:30:06;;;;;;;5.15;1.15;;;;;;;7.94;77.01;98573.34;4902847;29;20033;-78
2020/12/10 00:32:31;;;;;;;2.72;0.85;;;;;;;7.85;77.39;98556.88;4916315;29;20036;-80
2020/12/10 00:34:57;;;;;;;3.33;1.00;;;;;;;7.91;76.70;98561.13;4913049;29;20056;-79
2020/12/10 00:37:29;;;;;;;9.82;1.77;;;;;;;7.89;77.36;98559.84;4913000;29;20039;-78
2020/12/10 00:39:55;;;;;;;3.63;0.85;;;;;;;7.79;77.49;98550.69;4918764;29;20060;-81
2020/12/10 00:42:22;;;;;;;6.63;1.30;;;;;;;7.80;77.73;98557.75;4907437;29;20028;-82
2020/12/10 00:44:47;;;;;;;2.55;1.42;;;;;;;7.74;78.54;98542.63;4911501;29;20034;-82
2020/12/10 00:47:17;;;;;;;5.95;1.70;;;;;;;7.72;78.40;98539.34;4910282;29;20096;-81
2020/12/10 00:49:43;;;;;;;6.88;1.42;;;;;;;7.69;78.82;98535.34;4914370;29;20471;-80
2020/12/10 00:52:14;;;;;;;13.25;1.23;;;;;;;7.72;77.89;98533.91;4907542;29;20042;-82
2020/12/10 00:54:42;;;;;;;2.97;1.50;;;;;;;7.74;77.97;98529.00;4907053;29;20060;-81
2020/12/10 00:57:13;;;;;;;4.88;1.17;;;;;;;7.76;78.71;98529.50;4918338;29;20040;-82
2020/12/10 00:59:39;;;;;;;5.88;1.58;;;;;;;7.78;78.20;98527.31;4920723;29;20044;-82
2020/12/10 01:02:17;;;;;;;9.65;1.98;;;;;;;7.79;78.53;98539.81;4920153;29;20032;-83
2020/12/10 01:04:43;;;;;;;14.77;1.35;;;;;;;7.74;79.56;98537.19;4913855;29;20036;-79
2020/12/10 01:07:08;;;;;;;3.90;0.70;;;;;;;7.74;79.07;98542.63;4903036;29;20036;-82
2020/12/10 01:09:34;;;;;;;5.70;0.93;;;;;;;7.71;79.98;98520.63;4914922;29;20093;-78
2020/12/10 01:12:03;;;;;;;3.40;1.50;;;;;;;7.73;79.53;98535.53;4920421;29;20028;-77
2020/12/10 01:14:36;;;;;;;6.38;2.10;;;;;;;7.71;80.11;98528.78;4904342;29;20190;-76
2020/12/10 01:17:05;;;;;;;5.35;1.45;;;;;;;7.67;80.05;98515.75;4914207;29;20364;-77
2020/12/10 01:19:30;;;;;;;3.58;0.88;;;;;;;7.73;79.73;98527.38;4918704;29;20063;-76
2020/12/10 01:21:56;;;;;;;4.68;0.73;;;;;;;7.77;80.20;98528.41;4901852;29;20035;-76
2020/12/10 01:24:21;;;;;;;4.07;1.40;;;;;;;7.78;79.52;98521.06;4910140;29;20028;-77
2020/12/10 01:26:47;;;;;;;7.32;1.02;;;;;;;7.75;80.35;98510.75;4912579;29;20035;-75
2020/12/10 01:29:13;;;;;;;11.82;1.25;;;;;;;7.82;80.84;98531.06;4889689;29;20036;-77
2020/12/10 01:31:38;;;;;;;7.82;1.15;;;;;;;7.82;80.68;98528.34;4915341;29;20028;-76
2020/12/10 01:34:03;;;;;;;7.75;1.10;;;;;;;7.81;80.82;98524.00;4897277;29;20024;-77
2020/12/10 01:36:30;;;;;;;6.57;1.38;;;;;;;7.83;80.26;98518.28;4913125;29;20052;-75
2020/12/10 01:38:57;;;;;;;7.97;0.88;;;;;;;7.82;80.64;98520.16;4880604;29;20067;-76
2020/12/10 01:41:31;;;;;;;11.82;1.30;;;;;;;7.81;80.41;98515.84;4918111;29;20050;-78
2020/12/10 01:44:00;;;;;;;5.97;0.68;;;;;;;7.83;80.38;98519.06;4906349;29;20032;-78
2020/12/10 01:46:26;;;;;;;2.75;1.05;;;;;;;7.83;80.80;98521.78;4918218;29;20068;-76
2020/12/10 01:48:52;;;;;;;9.38;0.82;;;;;;;7.85;81.11;98518.78;4904683;29;20024;-74
2020/12/10 01:51:17;;;;;;;5.93;0.90;;;;;;;7.90;80.72;98524.16;4888167;29;20387;-73
2020/12/10 01:53:42;;;;;;;3.17;0.80;;;;;;;7.85;80.28;98514.13;4912984;29;20080;-73
2020/12/10 01:56:09;;;;;;;4.60;1.08;;;;;;;7.88;80.93;98525.56;4876680;29;20032;-73
2020/12/10 01:58:35;;;;;;;4.95;0.82;;;;;;;7.90;81.17;98517.88;4912324;29;20082;-74
2020/12/10 02:01:01;;;;;;;8.32;1.38;;;;;;;7.89;81.10;98527.19;4920636;29;20035;-74
2020/12/10 02:03:26;;;;;;;6.20;1.13;;;;;;;7.84;81.25;98522.59;4910027;29;20028;-74
2020/12/10 02:05:51;;;;;;;4.45;0.95;;;;;;;7.89;80.73;98525.25;4880731;29;20028;-73
2020/12/10 02:08:17;;;;;;;7.03;0.77;;;;;;;7.93;81.05;98522.75;4916876;29;20195;-73
2020/12/10 02:10:42;;;;;;;7.97;1.33;;;;;;;7.93;81.22;98520.00;4923813;29;20024;-73
2020/12/10 02:13:09;;;;;;;4.68;1.20;;;;;;;7.93;81.10;98514.56;4922132;29;20028;-74
2020/12/10 02:15:37;;;;;;;3.30;1.55;;;;;;;7.90;81.25;98517.88;4880177;29;20038;-74
2020/12/10 02:18:06;;;;;;;1.05;0.70;;;;;;;7.89;80.44;98511.66;4913740;29;20035;-74
2020/12/10 02:20:35;;;;;;;1.73;0.63;;;;;;;7.91;80.59;98503.19;4897147;29;20110;-76
2020/12/10 02:23:05;;;;;;;3.67;1.45;;;;;;;7.91;81.04;98505.91;4914993;29;20064;-75
2020/12/10 02:25:32;;;;;;;5.45;0.80;;;;;;;7.91;81.14;98514.06;4904699;29;20029;-77
2020/12/10 02:28:04;;;;;;;2.97;1.13;;;;;;;7.88;80.32;98492.91;4886402;29;20033;-76
2020/12/10 02:30:29;;;;;;;5.85;0.90;;;;;;;7.93;80.37;98512.69;4900836;29;20028;-76
2020/12/10 02:32:57;;;;;;;4.97;0.70;;;;;;;7.95;80.50;98505.03;4898248;29;20032;-74
2020/12/10 02:35:26;;;;;;;4.60;0.60;;;;;;;7.92;81.43;98493.94;4905330;29;20040;-75
2020/12/10 02:37:55;;;;;;;0.65;0.50;;;;;;;7.99;81.21;98505.25;4887694;29;20036;-74
2020/12/10 02:40:22;;;;;;;1.33;0.52;;;;;;;7.99;80.63;98488.91;4889863;29;20040;-75
2020/12/10 02:42:47;;;;;;;6.60;1.08;;;;;;;8.05;80.79;98493.16;4894499;29;20044;-74
2020/12/10 02:45:13;;;;;;;9.45;1.27;;;;;;;8.08;81.04;98487.13;4918904;29;20032;-74
2020/12/10 02:47:38;;;;;;;1.38;0.85;;;;;;;8.06;80.35;98483.91;4905688;29;20028;-74
2020/12/10 02:50:04;;;;;;;4.38;1.40;;;;;;;8.05;80.08;98482.28;4905871;29;20028;-75
2020/12/10 02:52:29;;;;;;;1.33;0.40;;;;;;;8.09;80.70;98496.09;4909750;29;20402;-74
2020/12/10 02:54:55;;;;;;;4.03;0.55;;;;;;;8.13;80.10;98491.69;4897339;29;20051;-74
2020/12/10 02:57:20;;;;;;;2.38;0.90;;;;;;;8.08;80.11;98481.69;4915162;29;20038;-74
2020/12/10 02:59:45;;;;;;;5.85;1.08;;;;;;;8.11;80.49;98491.97;4903035;29;20384;-75
2020/12/10 03:02:11;;;;;;;5.75;1.48;;;;;;;8.03;80.21;98468.97;4896066;29;20063;-75
2020/12/10 03:04:36;;;;;;;3.90;1.02;;;;;;;8.11;80.14;98485.72;4919234;29;20099;-77
2020/12/10 03:07:02;;;;;;;8.43;1.35;;;;;;;8.11;80.14;98485.72;4887335;29;20036;-75
2020/12/10 03:09:27;;;;;;;4.45;0.95;;;;;;;8.11;80.02;98481.09;4911303;29;20032;-76
2020/12/10 03:11:53;;;;;;;3.05;0.90;;;;;;;8.08;80.38;98476.25;4884085;29;20106;-75
2020/12/10 03:14:18;;;;;;;1.77;0.70;;;;;;;8.06;79.82;98473.03;4905953;29;20047;-76
2020/12/10 03:16:44;;;;;;;4.72;1.35;;;;;;;8.11;80.02;98481.09;4924475;29;20028;-75
2020/12/10 03:19:09;;;;;;;2.90;1.15;;;;;;;8.12;80.45;98471.00;4903803;29;20024;-75
2020/12/10 03:21:35;;;;;;;12.00;1.25;;;;;;;8.11;80.65;98474.84;4896634;29;20490;-75
2020/12/10 03:24:00;;;;;;;12.73;1.08;;;;;;;8.06;80.05;98475.75;4914551;29;20032;-76
2020/12/10 03:26:25;;;;;;;8.80;1.63;;;;;;;8.03;80.16;98473.59;4896952;29;20040;-76
2020/12/10 03:28:51;;;;;;;7.60;1.30;;;;;;;8.04;79.92;98472.50;4913947;29;20037;-75
2020/12/10 03:31:16;;;;;;;2.45;0.95;;;;;;;8.09;79.85;98475.16;4892105;29;20028;-75
2020/12/10 03:33:42;;;;;;;6.40;1.02;;;;;;;8.08;80.17;98476.25;4883593;29;20043;-75
2020/12/10 03:36:07;;;;;;;2.75;1.33;;;;;;;8.11;79.28;98475.66;4903460;29;20036;-75
2020/12/10 03:38:33;;;;;;;3.10;1.33;;;;;;;8.14;79.34;98479.69;4920667;29;20098;-75
2020/12/10 03:40:58;;;;;;;2.80;0.60;;;;;;;8.11;79.76;98472.91;4916100;29;20541;-76
2020/12/10 03:43:23;;;;;;;7.07;1.17;;;;;;;8.12;80.05;98471.81;4888610;29;20143;-76
2020/12/10 03:45:49;;;;;;;4.53;0.80;;;;;;;8.15;79.57;98482.13;4919532;29;20470;-76
2020/12/10 03:48:14;;;;;;;5.53;0.68;;;;;;;8.17;80.23;98474.44;4924496;29;20109;-76
2020/12/10 03:50:40;;;;;;;10.57;1.38;;;;;;;8.14;79.13;98480.50;4900168;29;20865;-75
2020/12/10 03:53:05;;;;;;;5.68;1.33;;;;;;;8.08;79.96;98470.78;4911428;29;20044;-76
2020/12/10 03:55:30;;;;;;;3.80;1.00;;;;;;;8.09;80.07;98483.31;4915597;29;20035;-73
2020/12/10 03:57:56;;;;;;;10.35;1.15;;;;;;;8.10;79.65;98479.47;4907863;29;20036;-77
2020/12/10 04:00:21;;;;;;;3.13;1.30;;;;;;;8.10;79.71;98479.47;4894724;29;20436;-73
2020/12/10 04:02:47;;;;;;;5.65;1.20;;;;;;;8.13;79.51;98483.50;4906535;29;20115;-73
2020/12/10 04:05:12;;;;;;;7.45;1.15;;;;;;;8.15;79.65;98484.84;4919615;29;20049;-75
2020/12/10 04:07:37;;;;;;;4.05;1.63;;;;;;;8.15;80.10;98482.13;4914924;29;20035;-75
2020/12/10 04:10:03;;;;;;;3.95;0.80;;;;;;;8.14;79.57;98485.94;4914243;29;20103;-73
2020/12/10 04:12:29;;;;;;;2.30;0.82;;;;;;;8.16;79.99;98488.34;4896023;29;20088;-72
2020/12/10 04:14:54;;;;;;;6.82;1.55;;;;;;;8.15;79.86;98482.13;4918905;29;20028;-73
2020/12/10 04:17:20;;;;;;;6.95;1.00;;;;;;;8.18;79.53;98492.41;4883900;29;20036;-74
2020/12/10 04:19:45;;;;;;;3.33;0.80;;;;;;;8.19;79.06;98499.47;4905217;29;20029;-75
2020/12/10 04:22:10;;;;;;;4.35;1.38;;;;;;;8.20;79.02;98492.09;4918747;29;20043;-74
2020/12/10 04:24:36;;;;;;;1.75;0.70;;;;;;;8.18;79.50;98500.56;4887158;29;20032;-75
2020/12/10 04:27:02;;;;;;;7.57;0.85;;;;;;;8.14;79.29;98485.94;4899445;29;20427;-75
2020/12/10 04:29:27;;;;;;;3.28;0.90;;;;;;;8.14;80.04;98491.38;4920093;29;20095;-76
2020/12/10 04:31:52;;;;;;;2.28;0.65;;;;;;;8.15;79.90;98497.66;4915733;29;20110;-75
2020/12/10 04:34:18;;;;;;;1.40;0.85;;;;;;;8.14;79.82;98490.59;4891771;29;20122;-74
2020/12/10 04:36:47;;;;;;;4.57;0.55;;;;;;;8.17;79.50;98485.34;4878007;29;20028;-75
2020/12/10 04:39:12;;;;;;;5.57;0.88;;;;;;;8.19;80.05;98494.03;4916910;29;20040;-75
2020/12/10 04:41:39;;;;;;;2.83;0.85;;;;;;;8.18;79.13;98481.53;4897285;29;20039;-75
2020/12/10 04:44:05;;;;;;;5.35;1.33;;;;;;;8.24;80.00;98495.84;4902715;29;20028;-74
2020/12/10 04:46:32;;;;;;;3.05;0.65;;;;;;;8.26;79.68;98498.28;4874922;29;20100;-75
2020/12/10 04:49:00;;;;;;;2.35;0.85;;;;;;;8.24;79.56;98495.06;4913855;29;20034;-75
2020/12/10 04:51:28;;;;;;;4.00;1.10;;;;;;;8.28;79.18;98502.34;4892411;29;20024;-74
2020/12/10 04:53:54;;;;;;;5.63;1.08;;;;;;;8.27;79.76;98494.47;4903747;29;20052;-76
2020/12/10 04:56:19;;;;;;;5.03;0.68;;;;;;;8.33;79.21;98502.22;4899166;29;20033;-76
2020/12/10 04:58:45;;;;;;;10.05;1.50;;;;;;;8.34;78.76;98508.50;4912391;29;20037;-75
2020/12/10 05:01:14;;;;;;;4.93;0.88;;;;;;;8.34;78.96;98494.88;4911441;29;20044;-76
2020/12/10 05:03:46;;;;;;;5.40;0.73;;;;;;;8.36;79.62;98503.56;4882630;29;20039;-75
2020/12/10 05:06:14;;;;;;;20.33;2.38;;;;;;;8.38;78.84;98501.34;4917524;29;20036;-75
2020/12/10 05:08:40;;;;;;;1.45;0.70;;;;;;;8.38;79.19;98502.16;4915876;29;20028;-74
2020/12/10 05:11:07;;;;;;;7.57;0.93;;;;;;;8.39;78.90;98500.22;4877746;29;20063;-75
2020/12/10 05:13:32;;;;;;;2.75;0.52;;;;;;;8.41;79.44;98497.22;4917889;29;20028;-75
2020/12/10 05:15:58;;;;;;;2.85;0.77;;;;;;;8.44;78.89;98504.78;4918661;29;20035;-74
2020/12/10 05:18:23;;;;;;;3.95;1.00;;;;;;;8.44;78.81;98505.63;4904622;29;20127;-76
2020/12/10 05:20:57;;;;;;;3.13;0.88;;;;;;;8.45;79.55;98506.44;4915322;29;20044;-75
2020/12/10 05:23:32;;;;;;;1.23;0.80;;;;;;;8.46;79.02;98508.84;4911460;29;20062;-75
2020/12/10 05:25:58;;;;;;;6.40;1.13;;;;;;;8.47;79.07;98520.56;4912347;29;20028;-76
2020/12/10 05:28:25;;;;;;;5.38;1.20;;;;;;;8.50;79.14;98514.53;4925277;29;20032;-76
2020/12/10 05:31:20;;;;;;;3.35;0.93;;;;;;;8.52;79.12;98513.09;4904597;29;20035;-74
2020/12/10 05:34:02;;;;;;;3.93;1.80;;;;;;;8.48;78.66;98512.09;4870734;29;20037;-76
2020/12/10 05:36:29;;;;;;;7.13;1.05;;;;;;;8.50;78.58;98518.06;4891652;29;20028;-76
2020/12/10 05:39:02;;;;;;;15.95;1.52;;;;;;;8.52;79.15;98524.00;4893503;29;20083;-76
2020/12/10 05:41:28;;;;;;;3.08;1.02;;;;;;;8.49;79.11;98527.31;4895355;29;20059;-75
2020/12/10 05:43:54;;;;;;;7.88;1.52;;;;;;;8.52;79.30;98524.00;4876389;29;20036;-74
2020/12/10 05:46:22;;;;;;;6.82;1.80;;;;;;;8.52;79.39;98520.47;4884607;29;20025;-74
2020/12/10 05:48:49;;;;;;;1.55;0.75;;;;;;;8.53;79.14;98520.19;4902442;29;20245;-74
2020/12/10 05:51:17;;;;;;;1.90;1.20;;;;;;;8.50;78.99;98520.78;4914766;29;20036;-73
2020/12/10 05:53:42;;;;;;;9.57;1.75;;;;;;;8.54;78.57;98529.16;4896803;29;20525;-73
2020/12/10 05:56:11;;;;;;;3.22;1.30;;;;;;;8.49;78.93;98534.69;4907551;29;20032;-74
2020/12/10 05:58:49;;;;;;;7.15;1.13;;;;;;;8.49;79.55;98535.50;4918604;29;20024;-74
2020/12/10 06:01:30;;;;;;;2.45;0.57;;;;;;;8.53;78.77;98547.41;4916865;29;20034;-73
2020/12/10 06:03:56;;;;;;;0.63;0.60;;;;;;;8.51;78.77;98537.94;4906994;29;20032;-74
2020/12/10 06:06:21;;;;;;;4.13;1.08;;;;;;;8.51;79.22;98541.47;4916684;29;20024;-73
2020/12/10 06:08:50;;;;;;;1.08;0.68;;;;;;;8.50;78.52;98537.13;4917079;29;20341;-74
2020/12/10 06:11:19;;;;;;;7.10;1.45;;;;;;;8.49;79.48;98545.59;4916557;29;20028;-73
2020/12/10 06:13:47;;;;;;;8.05;1.40;;;;;;;8.48;78.82;98549.41;4884138;29;20123;-75
2020/12/10 06:16:17;;;;;;;4.93;1.10;;;;;;;8.46;78.29;98541.53;4897478;29;20058;-75
2020/12/10 06:19:03;;;;;;;5.20;1.08;;;;;;;8.49;79.41;98551.03;4901764;29;20019;-72
2020/12/10 06:21:42;;;;;;;3.40;1.15;;;;;;;8.51;79.49;98560.53;4912609;29;20034;-73
2020/12/10 06:24:26;;;;;;;3.13;1.20;;;;;;;8.54;79.39;98579.03;4912089;29;20543;-75
2020/12/10 06:26:51;;;;;;;2.20;0.57;;;;;;;8.51;78.44;98566.00;4908218;29;20037;-74
2020/12/10 06:29:31;;;;;;;8.73;1.40;;;;;;;8.55;78.60;98572.44;4914314;29;20441;-75
2020/12/10 06:32:14;;;;;;;3.25;1.25;;;;;;;8.59;78.46;98582.78;4894746;29;20028;-75
2020/12/10 06:34:41;;;;;;;2.28;1.13;;;;;;;8.59;78.58;98582.78;4897775;29;20383;-75
2020/12/10 06:37:22;;;;;;;4.70;1.02;;;;;;;8.58;78.58;98587.38;4907586;29;20130;-75
2020/12/10 06:39:50;;;;;;;3.25;1.65;;;;;;;8.54;78.53;98591.81;4910494;29;20052;-75
2020/12/10 06:42:15;;;;;;;1.13;0.80;;;;;;;8.53;79.19;98598.38;4918362;29;20035;-75
2020/12/10 06:44:41;;;;;;;4.68;0.88;;;;;;;8.49;79.10;98589.19;4900049;29;20028;-74
2020/12/10 06:47:06;;;;;;;7.85;1.45;;;;;;;8.55;79.70;98596.16;4902581;29;20043;-75
2020/12/10 06:49:34;;;;;;;4.10;0.73;;;;;;;8.55;79.74;98602.41;4906630;29;20079;-73
2020/12/10 06:52:19;;;;;;;3.90;1.10;;;;;;;8.59;78.80;98593.66;4906351;29;20024;-74
2020/12/10 06:55:04;;;;;;;2.30;1.20;;;;;;;8.61;78.77;98596.91;4897896;29;20125;-74
2020/12/10 06:57:48;;;;;;;4.57;1.55;;;;;;;8.60;79.19;98593.38;4901989;29;20020;-74
2020/12/10 07:00:48;;;;;;;1.48;1.25;;;;;;;8.58;79.05;98600.22;4905312;29;20037;-73
2020/12/10 07:03:27;;;;;;;0.77;0.70;;;;;;;8.61;79.19;98613.25;4909327;29;20027;-73
2020/12/10 07:05:52;;;;;;;2.17;0.80;;;;;;;8.61;78.85;98611.31;4896412;29;20034;-74
2020/12/10 07:08:19;;;;;;;1.58;0.80;;;;;;;8.60;79.63;98608.88;4917950;29;20484;-75
2020/12/10 07:10:45;;;;;;;3.28;1.35;;;;;;;8.62;78.67;98620.31;4898394;29;20032;-74
2020/12/10 07:13:14;;;;;;;3.35;1.17;;;;;;;8.60;78.72;98611.63;4917484;29;20044;-76
2020/12/10 07:15:40;;;;;;;4.32;1.30;;;;;;;8.61;78.76;98626.88;4895840;29;20396;-74
2020/12/10 07:18:05;;;;;;;5.38;1.20;;;;;;;8.58;79.29;98636.44;4899720;29;20039;-75
2020/12/10 07:20:33;;;;;;;3.55;1.20;;;;;;;8.56;79.47;98633.22;4907387;29;20591;-73
2020/12/10 07:22:59;;;;;;;2.85;0.70;;;;;;;8.54;79.24;98629.94;4885641;29;20032;-75
2020/12/10 07:25:25;;;;;;;1.42;0.85;;;;;;;8.55;78.52;98637.81;4882889;29;20044;-77
2020/12/10 07:27:51;;;;;;;1.00;0.90;;;;;;;8.52;78.98;98643.88;4892374;29;20052;-80
2020/12/10 07:30:18;;;;;;;1.02;0.80;;;;;;;8.59;79.38;98648.16;4873621;29;20040;-73
2020/12/10 07:32:45;;;;;;;2.22;0.73;;;;;;;8.54;79.11;98641.69;4917242;29;20379;-75
2020/12/10 07:35:11;;;;;;;5.72;0.90;;;;;;;8.61;78.89;98656.84;4907949;29;20036;-74
2020/12/10 07:37:38;;;;;;;2.03;1.10;;;;;;;8.58;79.15;98646.53;4895128;29;20044;-74
2020/12/10 07:40:20;;;;;;;9.27;0.95;;;;;;;8.56;78.40;98666.69;4891492;29;20111;-74
2020/12/10 07:42:45;;;;;;;4.50;0.85;;;;;;;8.48;78.17;98659.19;4894062;29;20413;-76
2020/12/10 07:45:18;;;;;;;1.80;1.02;;;;;;;8.43;78.73;98663.88;4889571;29;20049;-72
2020/12/10 07:47:56;;;;;;;1.75;0.73;;;;;;;8.43;78.27;98667.41;4908410;29;20035;-73
2020/12/10 07:50:27;;;;;;;2.95;0.93;;;;;;;8.41;78.98;98672.38;4911872;29;20073;-72
2020/12/10 07:52:59;;;;;;;5.05;1.17;;;;;;;8.41;79.25;98691.44;4901113;29;20028;-73
2020/12/10 07:55:27;;;;;;;3.17;1.40;;;;;;;8.35;79.17;98684.41;4885001;29;20044;-73
2020/12/10 07:58:10;;;;;;;2.20;1.23;;;;;;;8.39;78.80;98693.63;4906307;29;20115;-73
2020/12/10 08:00:37;;;;;;;1.38;1.10;;;;;;;8.37;78.76;98706.72;4903475;29;20088;-72
2020/12/10 08:03:25;;;;;;;1.35;0.80;;;;;;;8.32;79.22;98704.06;4904076;29;20020;-73
2020/12/10 08:05:59;;;;;;;6.35;1.00;;;;;;;8.30;79.11;98703.56;4914481;29;20028;-73
2020/12/10 08:08:33;;;;;;;1.08;0.60;;;;;;;8.28;80.27;98703.03;4913352;29;20040;-72
2020/12/10 08:11:09;;;;;;;0.95;0.80;;;;;;;8.25;79.57;98706.34;4912436;29;20036;-73
2020/12/10 08:13:34;;;;;;;;;;;;;;;8.20;80.53;98713.47;4900875;29;20083;-73
2020/12/10 08:16:09;;;;;;;1.85;0.70;;;;;;;8.12;80.59;98705.97;4900997;29;19923;-73
2020/12/10 08:18:35;;;;;;;1.67;0.80;;;;;;;8.09;79.97;98703.00;4910328;29;20040;-70
2020/12/10 08:21:05;;;;;;;6.20;0.70;;;;;;;8.13;80.30;98712.22;4908847;29;20028;-72
2020/12/10 08:23:42;;;;;;;1.35;0.80;;;;;;;8.18;80.84;98723.03;4910678;29;20035;-75
2020/12/10 08:26:10;;;;;;;2.95;0.55;;;;;;;8.19;80.77;98722.75;4900541;29;20475;-74
2020/12/10 08:28:35;;;;;;;1.85;0.77;;;;;;;8.22;80.64;98715.91;4901414;29;20476;-73
2020/12/10 08:31:01;;;;;;;1.83;0.60;;;;;;;8.24;80.62;98723.78;4907024;29;20098;-74
2020/12/10 08:33:36;;;;;;;1.20;0.82;;;;;;;8.28;80.93;98724.81;4884047;29;20032;-75
2020/12/10 08:36:02;;;;;;;;;;;;;;;8.31;79.71;98732.38;4912189;29;20030;-76
2020/12/10 08:38:28;;;;;;;5.05;0.80;;;;;;;8.28;79.84;98731.09;4910003;29;19919;-75
2020/12/10 08:41:00;;;;;;;0.90;0.90;;;;;;;8.26;80.13;98729.75;4925105;29;20047;-76
2020/12/10 08:43:25;;;;;;;0.88;0.50;;;;;;;8.31;80.33;98740.56;4887794;29;20123;-75
2020/12/10 08:45:51;;;;;;;3.88;1.17;;;;;;;8.35;80.49;98739.72;4899371;29;20865;-75
2020/12/10 08:48:25;;;;;;;2.10;1.25;;;;;;;8.39;80.52;98742.66;4894877;29;20071;-76
2020/12/10 08:50:59;;;;;;;4.60;1.08;;;;;;;8.40;80.53;98738.81;4905428;29;20094;-75
2020/12/10 08:53:25;;;;;;;0.95;0.75;;;;;;;8.42;80.24;98742.06;4912479;29;20629;-75
2020/12/10 08:55:53;;;;;;;3.00;0.85;;;;;;;8.41;80.01;98740.47;4899393;29;20073;-75
2020/12/10 08:58:20;;;;;;;1.63;0.70;;;;;;;8.48;79.38;98746.34;4903244;29;20651;-75
2020/12/10 09:00:49;;;;;;;0.70;0.70;;;;;;;8.51;80.08;98751.25;4884056;29;20395;-75
2020/12/10 09:03:15;;;;;;;0.75;0.40;;;;;;;8.55;79.04;98748.72;4907733;29;20036;-75
2020/12/10 09:05:44;;;;;;;1.30;0.30;;;;;;;8.56;79.01;98751.16;4908935;29;20343;-75
2020/12/10 09:08:10;;;;;;;3.63;0.70;;;;;;;8.57;79.65;98749.22;4890045;29;20028;-76
2020/12/10 09:10:36;;;;;;;0.40;0.38;;;;;;;8.59;78.74;98759.88;4907769;29;20032;-76
2020/12/10 09:13:02;;;;;;;0.30;0.22;;;;;;;8.64;78.84;98768.75;4898173;29;20040;-76
2020/12/10 09:15:29;;;;;;;0.30;0.22;;;;;;;8.74;78.64;98776.00;4903316;29;20055;-76
2020/12/10 09:17:55;;;;;;;0.47;0.20;;;;;;;8.84;79.42;98775.84;4904191;29;20035;-74
2020/12/10 09:20:21;;;;;;;0.68;0.60;;;;;;;8.95;79.22;98775.69;4909564;29;20032;-74
2020/12/10 09:22:47;;;;;;;1.98;0.43;;;;;;;9.03;78.79;98783.22;4913094;29;20340;-73
2020/12/10 09:25:12;;;;;;;0.98;0.60;;;;;;;9.04;77.91;98773.94;4905143;29;20539;-75
2020/12/10 09:27:38;;;;;;;0.30;0.30;;;;;;;9.10;78.06;98772.75;4915099;29;20116;-75
2020/12/10 09:30:07;;;;;;;1.23;0.50;;;;;;;9.17;78.29;98773.19;4909918;29;20032;-74
2020/12/10 09:32:34;;;;;;;1.08;0.57;;;;;;;9.17;77.64;98773.19;4899790;29;20407;-75
2020/12/10 09:35:06;;;;;;;0.70;0.38;;;;;;;9.20;77.61;98778.03;4914828;29;20038;-76
2020/12/10 09:37:34;;;;;;;1.13;0.70;;;;;;;9.22;78.06;98778.53;4914132;29;20039;-75
2020/12/10 09:40:00;;;;;;;1.58;0.77;;;;;;;9.27;77.74;98777.63;4913086;29;20032;-75
2020/12/10 09:42:25;;;;;;;1.42;0.93;;;;;;;9.34;77.31;98788.19;4911563;29;20088;-75
2020/12/10 09:44:51;;;;;;;1.10;0.70;;;;;;;9.38;77.15;98781.84;4902335;29;20692;-75
2020/12/10 09:47:16;;;;;;;0.80;0.55;;;;;;;9.42;77.54;98785.59;4913076;29;20034;-75
2020/12/10 09:49:42;;;;;;;1.00;0.75;;;;;;;9.47;77.26;98775.69;4912807;29;20039;-76
2020/12/10 09:52:08;;;;;;;0.65;0.30;;;;;;;9.56;77.22;98780.19;4898492;29;20478;-75
2020/12/10 09:59:30;;;;;;;0.63;0.50;;;;;;;9.59;75.81;98795.94;4913197;29;20076;-75
2020/12/10 10:01:56;;;;;;;0.88;0.68;;;;;;;9.55;76.24;98800.38;4908238;29;20047;-78
2020/12/10 10:04:21;;;;;;;0.90;0.50;;;;;;;9.52;75.73;98800.16;4919173;29;20471;-76
2020/12/10 10:06:48;;;;;;;0.75;0.55;;;;;;;9.52;76.62;98802.88;4894911;29;20473;-77
2020/12/10 10:09:13;;;;;;;0.40;0.40;;;;;;;9.56;76.54;98801.19;4905472;29;20117;-76
2020/12/10 10:11:39;;;;;;;1.25;0.70;;;;;;;9.55;75.50;98799.56;4914546;29;20110;-76
2020/12/10 10:14:04;;;;;;;2.25;0.55;;;;;;;9.56;76.50;98798.47;4910588;29;20087;-76
2020/12/10 10:16:31;;;;;;;3.17;0.60;;;;;;;9.53;76.29;98799.84;4915215;29;20020;-76
2020/12/10 10:18:58;;;;;;;1.95;0.50;;;;;;;9.49;76.15;98790.66;4917161;29;20079;-76
2020/12/10 10:21:26;;;;;;;0.57;0.47;;;;;;;9.42;76.30;98785.59;4893432;29;20055;-77
2020/12/10 10:23:51;;;;;;;7.07;0.73;;;;;;;9.43;75.90;98792.66;4899207;29;20047;-77
2020/12/10 10:26:17;;;;;;;2.70;0.80;;;;;;;9.36;75.94;98785.97;4895453;29;20430;-77
2020/12/10 10:28:45;;;;;;;1.58;0.52;;;;;;;9.35;75.86;98787.09;4889329;29;20398;-76
2020/12/10 10:31:10;;;;;;;6.13;0.77;;;;;;;9.26;76.27;98755.03;4894609;29;20044;-76
2020/12/10 10:33:36;;;;;;;1.88;0.80;;;;;;;9.20;76.18;98736.31;4901819;29;20035;-77
2020/12/10 10:36:02;;;;;;;1.98;0.88;;;;;;;9.24;76.88;98746.34;4920490;29;20028;-77
2020/12/10 10:38:28;;;;;;;1.50;1.00;;;;;;;9.18;76.29;98739.31;4895758;29;20383;-77
2020/12/10 10:40:54;;;;;;;2.92;1.00;;;;;;;9.17;76.18;98735.00;4891184;29;20032;-77
2020/12/10 10:43:20;;;;;;;1.77;0.60;;;;;;;9.10;76.73;98718.22;4904102;29;20078;-77
2020/12/10 10:45:45;;;;;;;0.70;0.52;;;;;;;9.14;76.01;98732.03;4905819;29;20056;-77
2020/12/10 10:48:11;;;;;;;1.90;0.60;;;;;;;9.22;76.31;98747.75;4914700;29;20021;-77
2020/12/10 10:50:36;;;;;;;0.73;0.45;;;;;;;9.24;75.96;98740.88;4903997;29;20036;-76
2020/12/10 10:53:02;;;;;;;1.45;0.75;;;;;;;9.25;76.10;98741.69;4913602;29;20060;-77
2020/12/10 10:55:30;;;;;;;1.65;0.80;;;;;;;9.21;76.74;98736.03;4873857;29;20196;-77
2020/12/10 10:57:58;;;;;;;0.88;0.47;;;;;;;9.24;76.05;98740.88;4893854;29;20028;-77
2020/12/10 11:00:24;;;;;;;0.68;0.32;;;;;;;9.23;76.44;98750.16;4890376;29;20035;-78
2020/12/10 11:02:49;;;;;;;3.15;0.90;;;;;;;9.34;76.26;98775.34;4891363;29;20029;-80
2020/12/10 11:05:18;;;;;;;1.10;0.60;;;;;;;9.28;75.54;98767.56;4883475;29;20508;-77
2020/12/10 11:07:43;;;;;;;0.98;0.40;;;;;;;9.25;75.31;98758.84;4880731;29;20021;-76
2020/12/10 11:10:11;;;;;;;0.50;0.40;;;;;;;9.34;75.43;98777.28;4882319;29;20033;-80
2020/12/10 11:12:41;;;;;;;2.33;0.80;;;;;;;9.32;75.78;98763.94;4886013;29;20025;-76
2020/12/10 11:15:07;;;;;;;0.65;0.63;;;;;;;9.38;75.36;98764.66;4889118;29;20040;-79
2020/12/10 11:17:32;;;;;;;0.82;0.75;;;;;;;9.47;74.79;98765.59;4901573;29;20028;-78
2020/12/10 11:19:58;;;;;;;0.75;0.50;;;;;;;9.66;75.76;98783.84;4880993;29;20043;-78
2020/12/10 11:22:23;;;;;;;1.90;0.80;;;;;;;9.75;75.80;98787.47;4896186;29;20045;-76
2020/12/10 11:24:49;;;;;;;0.60;0.40;;;;;;;9.81;75.07;98774.56;4881167;29;20059;-78
2020/12/10 11:27:14;;;;;;;1.95;0.40;;;;;;;9.88;74.98;98783.97;4871154;29;20044;-77
2020/12/10 11:29:40;;;;;;;1.33;0.85;;;;;;;9.95;74.60;98786.31;4879460;29;20058;-77
2020/12/10 11:32:05;;;;;;;0.70;0.60;;;;;;;9.96;74.29;98783.28;4898572;29;20044;-76
2020/12/10 11:34:30;;;;;;;0.60;0.50;;;;;;;10.04;73.97;98792.69;4882145;29;20119;-77
2020/12/10 11:36:57;;;;;;;0.50;0.50;;;;;;;10.04;74.13;98791.88;4873926;29;20026;-76
2020/12/10 11:39:22;;;;;;;4.75;1.13;;;;;;;10.00;73.12;98788.13;4897882;29;20028;-77
2020/12/10 11:41:48;;;;;;;2.50;1.00;;;;;;;9.95;73.45;98780.84;4895773;29;20040;-76
2020/12/10 11:44:13;;;;;;;2.90;0.63;;;;;;;9.90;73.23;98773.56;4883674;29;20041;-77
2020/12/10 11:46:39;;;;;;;1.00;1.00;;;;;;;9.84;73.10;98772.03;4887490;29;20033;-78
2020/12/10 11:49:05;;;;;;;0.60;0.60;;;;;;;9.83;72.97;98781.34;4881404;29;20031;-79